Tropical Cyclones
[Index]
Main Index Home Page Stock Weather Photos Extreme Storms Discussion Storm News and Storm Chasing Reports Tropical Cyclones / Hurricanes / Typhoons Weather Data and Links Wild Fires / Bushfires Weather Observation Techniques Weather Picture Catalogue Tornado Pictures and Reports Stock Video Footage and DVDs for sale
Season 1977-1978 Tropical Cyclone CHARLES Track Map
Season 1977-1978 Summaries: [BoM-AU] [JTWC-AU] [JTWC-SIO] [JTWC-SPAC] [JTWC-SH]
<<- Previous TC | JTWC 1977-1978 Season | Next TC ->>

click for intensity scale information  Lat/long Grid: Show Hide

 Date Labels: Show Hide

Joint Typhoon Warning Centre Cyclone Data

Name: CHARLES
Number: 976 / 7820

13 Feb 1978 12:00 UTC to 01 Mar 1978 00:00 UTC

    date/time    lat    long     hPa   cat  kts
1978-02-13 12   12.8   179.1                  25          
1978-02-13 18   12.8   179.5                  25          
1978-02-14 00   12.8   179.9W                 25          
1978-02-14 06   12.8   179.2W                 30          
1978-02-14 12   12.9   178.5W                 30          
1978-02-14 18   12.9   177.7W                 30          
1978-02-15 00   13.0   176.8W                 30          
1978-02-15 06   13.0   175.5W                 35          
1978-02-15 12   13.0   174.2W                 35          
1978-02-15 18   13.0   173.3W           1     40          
1978-02-16 00   13.1   172.2W           1     45          
1978-02-16 06   13.4   170.6W           1     50          
1978-02-16 12   13.7   169.0W           2     55          
1978-02-16 18   14.1   167.2W           2     60          
1978-02-17 00   14.4   166.0W           2     65          
1978-02-17 06   14.6   165.5W           2     70          
1978-02-17 12   14.7   165.0W           3     75          
1978-02-17 18   14.8   164.5W           3     75          
1978-02-18 00   14.9   164.0W           3     75          
1978-02-18 06   15.1   163.5W           2     70          
1978-02-18 12   15.2   163.0W           2     70          
1978-02-18 18   15.1   162.4W           2     70          
1978-02-19 00   15.0   162.0W           2     70          
1978-02-19 06   14.9   162.2W           2     65          
1978-02-19 12   14.8   162.5W           2     65          
1978-02-19 18   14.9   162.7W           2     65          
1978-02-20 00   15.0   163.0W           2     65          
1978-02-20 06   15.1   163.2W           2     65          
1978-02-20 12   15.2   163.5W           2     65          
1978-02-20 18   15.3   163.7W           2     65          
1978-02-21 00   15.5   163.8W           2     65          
1978-02-21 06   15.7   163.9W           2     70          
1978-02-21 12   16.0   163.9W           2     70          
1978-02-21 18   16.3   164.0W           2     70          
1978-02-22 00   16.5   163.9W           3     75          
1978-02-22 06   16.7   163.7W           3     75          
1978-02-22 12   16.8   163.5W           3     75          
1978-02-22 18   16.9   163.3W           3     75          
1978-02-23 00   17.1   163.1W           3     75          
1978-02-23 06   17.2   162.9W           3     75          
1978-02-23 12   17.2   162.8W           3     75          
1978-02-23 18   17.3   162.7W           3     75          
1978-02-24 00   17.4   162.5W           3     75          
1978-02-24 06   17.4   162.3W           3     75          
1978-02-24 12   17.5   162.1W           3     75          
1978-02-24 18   17.5   162.1W           3     75          
1978-02-25 00   17.6   161.8W           3     75          
1978-02-25 06   17.7   161.2W           2     70          
1978-02-25 12   18.2   160.5W           2     70          
1978-02-25 18   19.0   159.9W           2     70          
1978-02-26 00   20.0   159.2W           2     70          
1978-02-26 06   21.0   158.6W           2     65          
1978-02-26 12   22.1   158.1W           2     65          
1978-02-26 18   23.4   157.5W           2     60          
1978-02-27 00   24.7   156.8W           2     55          
1978-02-27 06   26.0   155.8W           1     50          
1978-02-27 12   27.2   154.8W           1     45          
1978-02-27 18   28.1   153.9W           1     40          
1978-02-28 00   29.0   153.0W           1     40          
1978-02-28 06   30.1   151.3W                 35          
1978-02-28 12   31.5   149.5W                 35          
1978-02-28 18   33.1   148.1W                             
1978-03-01 00   35.0   147.0W                             
Winds are 1-min average.

Tropical cyclone tracks developed by Michael Bath using data from the Joint Typhoon Warning Centre Best Tracks and Google Maps.


[Australian Severe Weather index] [Copyright Notice] [Email Contacts] [Search This Site] [Privacy Policy]
Document: tropical_cyclone_charles.htm Updated: 18 September 2016